Time;durP1;ratioP1;P1;durP2;ratioP2;P2;SDS_P1;SDS_P2;PMS_P1;PMS_P2;Temp;Humidity;BMP_temperature;BMP_pressure;BME280_temperature;BME280_humidity;BME280_pressure;Samples;Min_cycle;Max_cycle;Signal;HPM_P1;HPM_P2
2023/02/12 00:02:17;;;;;;;18.38;15.63;;;;;;;;;;5056186;28;20358;-56
2023/02/12 00:04:43;;;;;;;18.67;15.70;;;;;;;;;;5056676;28;20414;-55
2023/02/12 00:07:09;;;;;;;22.90;15.52;;;;;;;;;;5055623;28;20025;-56
2023/02/12 00:09:39;;;;;;;28.83;17.60;;;;;;;;;;5055573;28;20029;-54
2023/02/12 00:12:05;;;;;;;22.77;16.60;;;;;;;;;;5055529;28;20052;-55
2023/02/12 00:14:31;;;;;;;20.42;17.50;;;;;;;;;;5055141;28;20498;-56
2023/02/12 00:16:57;;;;;;;25.83;15.90;;;;;;;;;;5055947;28;20025;-55
2023/02/12 00:19:23;;;;;;;18.50;14.35;;;;;;;;;;5055843;28;20025;-54
2023/02/12 00:21:49;;;;;;;17.90;14.63;;;;;;;;;;5054937;28;20467;-56
2023/02/12 00:24:15;;;;;;;28.33;17.60;;;;;;;;;;5055781;28;20040;-56
2023/02/12 00:26:41;;;;;;;21.17;16.67;;;;;;;;;;5055885;28;20155;-56
2023/02/12 00:29:07;;;;;;;23.00;16.95;;;;;;;;;;5055183;28;20379;-56
2023/02/12 00:31:33;;;;;;;25.25;15.35;;;;;;;;;;5055105;28;20104;-56
2023/02/12 00:33:59;;;;;;;23.80;17.05;;;;;;;;;;5054928;28;20033;-56
2023/02/12 00:36:26;;;;;;;23.63;15.02;;;;;;;;;;5055411;28;20032;-56
2023/02/12 00:38:53;;;;;;;19.73;15.95;;;;;;;;;;5055202;28;20029;-56
2023/02/12 00:41:20;;;;;;;21.17;16.30;;;;;;;;;;5055485;28;20056;-55
2023/02/12 00:43:46;;;;;;;20.40;16.30;;;;;;;;;;5055102;28;20048;-56
2023/02/12 00:46:12;;;;;;;21.40;16.15;;;;;;;;;;5055668;28;20063;-56
2023/02/12 00:48:38;;;;;;;20.42;16.55;;;;;;;;;;5054245;28;20025;-54
2023/02/12 00:51:05;;;;;;;22.70;17.25;;;;;;;;;;5054698;28;20029;-55
2023/02/12 00:53:31;;;;;;;20.23;15.98;;;;;;;;;;5054946;28;20140;-54
2023/02/12 00:55:57;;;;;;;23.55;16.38;;;;;;;;;;5054665;28;20079;-56
2023/02/12 00:58:23;;;;;;;25.77;18.17;;;;;;;;;;5055091;28;20332;-57
2023/02/12 01:00:50;;;;;;;18.35;15.02;;;;;;;;;;5054792;28;20082;-56
2023/02/12 01:03:16;;;;;;;21.38;16.92;;;;;;;;;;5054938;28;20131;-56
2023/02/12 01:05:42;;;;;;;17.25;14.80;;;;;;;;;;5054173;28;20528;-56
2023/02/12 01:08:11;;;;;;;24.83;16.50;;;;;;;;;;5053775;28;20032;-55
2023/02/12 01:10:37;;;;;;;18.13;14.90;;;;;;;;;;5054360;28;20025;-54
2023/02/12 01:13:03;;;;;;;24.20;17.55;;;;;;;;;;5054330;28;20048;-56
2023/02/12 01:15:29;;;;;;;23.98;16.23;;;;;;;;;;5054408;28;20154;-56
2023/02/12 01:17:55;;;;;;;23.15;16.48;;;;;;;;;;5054761;28;20036;-56
2023/02/12 01:20:22;;;;;;;24.73;16.08;;;;;;;;;;5054234;28;20028;-55
2023/02/12 01:22:48;;;;;;;24.33;16.38;;;;;;;;;;5054191;28;20415;-56
2023/02/12 01:25:14;;;;;;;25.13;16.48;;;;;;;;;;5054400;28;20044;-56
2023/02/12 01:27:40;;;;;;;17.98;15.25;;;;;;;;;;5054383;28;20103;-55
2023/02/12 01:30:08;;;;;;;25.23;16.80;;;;;;;;;;5054355;28;20021;-56
2023/02/12 01:32:34;;;;;;;18.80;15.70;;;;;;;;;;5054084;28;20033;-55
2023/02/12 01:35:00;;;;;;;30.83;16.90;;;;;;;;;;5054272;28;20029;-57
2023/02/12 01:37:26;;;;;;;23.83;16.85;;;;;;;;;;5054461;28;20021;-56
2023/02/12 01:39:52;;;;;;;22.52;16.92;;;;;;;;;;5054211;28;20028;-56
2023/02/12 01:42:18;;;;;;;20.75;16.50;;;;;;;;;;5053909;28;20048;-56
2023/02/12 01:44:45;;;;;;;21.48;15.45;;;;;;;;;;5054054;28;20074;-56
2023/02/12 01:47:16;;;;;;;22.10;15.98;;;;;;;;;;5053816;28;20025;-55
2023/02/12 01:49:43;;;;;;;21.55;18.52;;;;;;;;;;5054323;28;20021;-56
2023/02/12 01:52:12;;;;;;;29.27;17.05;;;;;;;;;;5053701;28;20053;-56
2023/02/12 01:54:38;;;;;;;23.10;18.15;;;;;;;;;;5054076;28;20122;-57
2023/02/12 01:57:05;;;;;;;19.88;15.52;;;;;;;;;;5053707;28;20141;-54
2023/02/12 01:59:32;;;;;;;19.77;15.25;;;;;;;;;;5053567;28;20362;-56
2023/02/12 02:01:58;;;;;;;21.10;16.00;;;;;;;;;;5054091;28;20354;-55
2023/02/12 02:04:27;;;;;;;23.30;17.30;;;;;;;;;;5053188;28;20124;-56
2023/02/12 02:06:56;;;;;;;20.20;16.15;;;;;;;;;;5053886;28;20032;-55
2023/02/12 02:09:24;;;;;;;23.75;16.55;;;;;;;;;;5053911;28;20036;-55
2023/02/12 02:14:35;;;;;;;24.13;17.30;;;;;;;;;;5053135;28;20035;-55
2023/02/12 02:17:04;;;;;;;17.58;15.27;;;;;;;;;;5053501;28;20071;-56
2023/02/12 02:19:40;;;;;;;23.00;17.67;;;;;;;;;;5053607;28;20029;-57
2023/02/12 02:22:06;;;;;;;20.38;17.05;;;;;;;;;;5053264;28;20021;-55
2023/02/12 02:24:38;;;;;;;22.17;16.75;;;;;;;;;;5054062;28;20087;-56
2023/02/12 02:27:19;;;;;;;29.40;17.38;;;;;;;;;;5053355;28;20033;-56
2023/02/12 02:29:54;;;;;;;24.02;18.42;;;;;;;;;;5053532;28;20051;-55
2023/02/12 02:32:23;;;;;;;22.77;17.55;;;;;;;;;;5053490;28;20029;-56
2023/02/12 02:34:53;;;;;;;30.88;17.52;;;;;;;;;;5053680;28;20036;-56
2023/02/12 02:37:21;;;;;;;19.23;15.05;;;;;;;;;;5053237;28;20029;-56
2023/02/12 02:39:50;;;;;;;22.95;17.48;;;;;;;;;;5053378;28;20040;-55
2023/02/12 02:42:18;;;;;;;21.67;16.20;;;;;;;;;;5053064;28;20515;-56
2023/02/12 02:44:44;;;;;;;24.65;17.73;;;;;;;;;;5053471;28;20029;-55
2023/02/12 02:47:12;;;;;;;22.17;16.73;;;;;;;;;;5053090;28;20029;-56
2023/02/12 02:49:45;;;;;;;22.48;17.58;;;;;;;;;;5053190;28;20021;-56
2023/02/12 02:52:16;;;;;;;22.90;16.35;;;;;;;;;;5053290;28;20036;-54
2023/02/12 02:54:45;;;;;;;22.17;15.88;;;;;;;;;;5053438;28;20362;-54
2023/02/12 02:57:16;;;;;;;25.80;18.63;;;;;;;;;;5053126;28;20029;-54
2023/02/12 02:59:45;;;;;;;23.77;16.13;;;;;;;;;;5052850;28;20025;-54
2023/02/12 03:02:21;;;;;;;24.55;15.85;;;;;;;;;;5052948;28;20421;-56
2023/02/12 03:04:51;;;;;;;22.70;17.20;;;;;;;;;;5052780;28;20116;-56
2023/02/12 03:07:24;;;;;;;26.30;16.63;;;;;;;;;;5052908;28;20450;-54
2023/02/12 03:10:01;;;;;;;23.23;16.50;;;;;;;;;;5053601;28;20434;-56
2023/02/12 03:12:30;;;;;;;22.10;17.27;;;;;;;;;;5055744;28;20039;-56
2023/02/12 03:15:00;;;;;;;21.13;16.67;;;;;;;;;;5056861;28;20037;-56
2023/02/12 03:17:29;;;;;;;23.27;16.40;;;;;;;;;;5056582;28;20029;-54
2023/02/12 03:19:58;;;;;;;19.75;15.73;;;;;;;;;;5056432;28;20366;-55
2023/02/12 03:22:27;;;;;;;20.58;15.00;;;;;;;;;;5056617;28;20048;-56
2023/02/12 03:24:57;;;;;;;23.35;17.00;;;;;;;;;;5056529;28;20040;-57
2023/02/12 03:27:28;;;;;;;25.50;17.77;;;;;;;;;;5056286;28;20470;-57
2023/02/12 03:29:54;;;;;;;22.42;17.92;;;;;;;;;;5057217;28;20028;-55
2023/02/12 03:32:20;;;;;;;22.67;16.13;;;;;;;;;;5056478;28;20032;-56
2023/02/12 03:35:05;;;;;;;21.92;17.52;;;;;;;;;;5056686;28;20037;-56
2023/02/12 03:37:35;;;;;;;19.50;15.23;;;;;;;;;;5056356;28;20082;-55
2023/02/12 03:40:19;;;;;;;21.70;17.50;;;;;;;;;;5057203;28;20082;-56
2023/02/12 03:43:04;;;;;;;22.33;16.35;;;;;;;;;;5055980;28;20029;-53
2023/02/12 03:45:30;;;;;;;23.95;16.58;;;;;;;;;;5055882;28;20040;-56
2023/02/12 03:48:01;;;;;;;21.33;16.65;;;;;;;;;;5055695;28;20025;-56
2023/02/12 03:50:33;;;;;;;18.63;15.98;;;;;;;;;;5056816;28;20025;-56
2023/02/12 03:52:59;;;;;;;22.95;15.95;;;;;;;;;;5056421;28;20083;-56
2023/02/12 03:55:26;;;;;;;23.63;16.40;;;;;;;;;;5056224;28;20032;-56
2023/02/12 03:57:55;;;;;;;19.70;16.55;;;;;;;;;;5056185;28;20052;-55
2023/02/12 04:00:22;;;;;;;18.70;16.13;;;;;;;;;;5055987;28;20028;-56
2023/02/12 04:02:49;;;;;;;24.65;17.50;;;;;;;;;;5055973;28;20025;-53
2023/02/12 04:05:17;;;;;;;24.13;17.30;;;;;;;;;;5055673;28;20039;-55
2023/02/12 04:07:43;;;;;;;27.02;17.45;;;;;;;;;;5055637;28;20029;-56
2023/02/12 04:10:09;;;;;;;23.75;18.27;;;;;;;;;;5055540;28;20399;-56
2023/02/12 04:12:54;;;;;;;21.73;17.08;;;;;;;;;;5055184;28;20482;-56
2023/02/12 04:15:31;;;;;;;21.83;17.67;;;;;;;;;;5055655;28;20025;-56
2023/02/12 04:17:57;;;;;;;20.60;17.00;;;;;;;;;;5055673;28;20104;-56
2023/02/12 04:20:41;;;;;;;21.42;18.33;;;;;;;;;;5055414;28;20048;-56
2023/02/12 04:23:19;;;;;;;25.77;20.30;;;;;;;;;;5055624;28;20410;-55
2023/02/12 04:25:53;;;;;;;29.35;19.95;;;;;;;;;;5055610;28;20112;-55
2023/02/12 04:28:28;;;;;;;28.73;18.63;;;;;;;;;;5055977;28;20024;-56
2023/02/12 04:30:57;;;;;;;25.50;18.75;;;;;;;;;;5055934;28;20036;-55
2023/02/12 04:33:25;;;;;;;23.63;17.65;;;;;;;;;;5055470;28;20025;-56
2023/02/12 04:35:54;;;;;;;23.80;17.15;;;;;;;;;;5055419;28;20123;-54
2023/02/12 04:38:23;;;;;;;26.05;18.88;;;;;;;;;;5054914;28;20028;-56
2023/02/12 04:40:50;;;;;;;22.55;17.83;;;;;;;;;;5055115;28;20067;-55
2023/02/12 04:43:25;;;;;;;24.35;18.98;;;;;;;;;;5055005;28;20108;-55
2023/02/12 04:45:51;;;;;;;25.35;21.17;;;;;;;;;;5055000;28;20039;-56
2023/02/12 04:48:17;;;;;;;24.10;19.25;;;;;;;;;;5054998;28;20506;-56
2023/02/12 04:50:45;;;;;;;26.48;18.83;;;;;;;;;;5054898;28;20029;-56
2023/02/12 04:53:11;;;;;;;24.42;19.33;;;;;;;;;;5054838;28;20024;-57
2023/02/12 04:55:37;;;;;;;27.50;20.15;;;;;;;;;;5054807;28;20082;-55
2023/02/12 04:58:03;;;;;;;30.73;20.58;;;;;;;;;;5054691;28;20128;-54
2023/02/12 05:00:29;;;;;;;19.58;17.15;;;;;;;;;;5054700;28;20028;-54
2023/02/12 05:02:55;;;;;;;24.48;19.45;;;;;;;;;;5054503;28;20029;-56
2023/02/12 05:05:21;;;;;;;23.10;18.40;;;;;;;;;;5055332;28;20036;-56
2023/02/12 05:07:47;;;;;;;23.95;18.85;;;;;;;;;;5054532;28;20029;-57
2023/02/12 05:10:13;;;;;;;26.13;20.23;;;;;;;;;;5054416;28;20028;-54
2023/02/12 05:12:39;;;;;;;29.45;20.58;;;;;;;;;;5054380;28;20530;-56
2023/02/12 05:15:05;;;;;;;25.23;20.27;;;;;;;;;;5054987;28;20028;-54
2023/02/12 05:17:31;;;;;;;25.00;21.42;;;;;;;;;;5054945;28;20108;-54
2023/02/12 05:19:57;;;;;;;22.40;19.42;;;;;;;;;;5054335;28;20446;-56
2023/02/12 05:22:23;;;;;;;28.38;19.13;;;;;;;;;;5054623;28;20025;-56
2023/02/12 05:24:49;;;;;;;22.38;18.58;;;;;;;;;;5054569;28;20072;-55
2023/02/12 05:27:15;;;;;;;23.90;19.30;;;;;;;;;;5054516;28;20445;-55
2023/02/12 05:29:41;;;;;;;23.33;19.67;;;;;;;;;;5054133;28;20451;-56
2023/02/12 05:32:07;;;;;;;29.23;18.98;;;;;;;;;;5054195;28;20514;-54
2023/02/12 05:34:34;;;;;;;21.27;17.88;;;;;;;;;;5053713;28;20075;-54
2023/02/12 05:36:59;;;;;;;24.45;16.83;;;;;;;;;;5054374;28;20035;-53
2023/02/12 05:39:25;;;;;;;26.48;18.67;;;;;;;;;;5054036;28;20079;-53
2023/02/12 05:41:51;;;;;;;22.83;17.00;;;;;;;;;;5054183;28;20029;-56
2023/02/12 05:44:17;;;;;;;21.75;18.42;;;;;;;;;;5053746;28;20060;-55
2023/02/12 05:46:43;;;;;;;21.60;18.33;;;;;;;;;;5054860;28;20025;-55
2023/02/12 05:49:10;;;;;;;27.40;18.25;;;;;;;;;;5053856;28;20036;-54
2023/02/12 05:51:37;;;;;;;22.73;18.10;;;;;;;;;;5053605;28;20033;-55
2023/02/12 05:54:03;;;;;;;23.67;17.52;;;;;;;;;;5053512;28;20048;-54
2023/02/12 05:56:34;;;;;;;19.38;16.05;;;;;;;;;;5054600;28;20356;-56
2023/02/12 05:59:01;;;;;;;;;;;;;;;;;;5054587;28;20126;-56
2023/02/12 06:01:35;;;;;;;21.20;16.70;;;;;;;;;;5053956;28;20251;-56
2023/02/12 06:04:02;;;;;;;21.02;15.60;;;;;;;;;;5053596;28;20487;-55
2023/02/12 06:06:28;;;;;;;26.58;16.00;;;;;;;;;;5052726;28;20033;-55
2023/02/12 06:08:55;;;;;;;23.90;18.75;;;;;;;;;;5053732;28;20486;-55
2023/02/12 06:11:21;;;;;;;19.98;15.55;;;;;;;;;;5053951;28;20362;-54
2023/02/12 06:13:47;;;;;;;23.58;16.13;;;;;;;;;;5053336;28;20104;-55
2023/02/12 06:16:23;;;;;;;21.27;17.08;;;;;;;;;;5053785;28;20045;-54
2023/02/12 06:18:50;;;;;;;24.92;17.90;;;;;;;;;;5053814;28;20036;-53
2023/02/12 06:21:17;;;;;;;26.85;17.48;;;;;;;;;;5053350;28;20048;-56
2023/02/12 06:23:43;;;;;;;22.55;17.23;;;;;;;;;;5053194;28;20044;-56
2023/02/12 06:26:09;;;;;;;22.55;17.80;;;;;;;;;;5054074;28;20115;-55
2023/02/12 06:28:35;;;;;;;22.92;16.23;;;;;;;;;;5053169;28;20021;-56
2023/02/12 06:31:01;;;;;;;27.40;17.38;;;;;;;;;;5053509;28;20091;-55
2023/02/12 06:33:27;;;;;;;27.20;17.65;;;;;;;;;;5051920;28;20029;-56
2023/02/12 06:35:54;;;;;;;25.52;19.38;;;;;;;;;;5053122;28;20526;-53
2023/02/12 06:38:19;;;;;;;24.30;18.10;;;;;;;;;;5053170;28;20082;-56
2023/02/12 06:40:45;;;;;;;23.73;18.45;;;;;;;;;;5053270;28;20021;-56
2023/02/12 06:43:12;;;;;;;23.63;17.27;;;;;;;;;;5053747;28;20131;-54
2023/02/12 06:45:38;;;;;;;25.33;18.58;;;;;;;;;;5053473;28;20029;-57
2023/02/12 06:48:04;;;;;;;23.17;18.55;;;;;;;;;;5057230;28;20021;-55
2023/02/12 06:50:30;;;;;;;25.48;18.42;;;;;;;;;;5057121;28;20033;-56
2023/02/12 06:52:57;;;;;;;27.50;20.42;;;;;;;;;;5055880;28;20021;-56
2023/02/12 06:55:23;;;;;;;22.60;19.80;;;;;;;;;;5057429;28;20033;-55
2023/02/12 06:57:49;;;;;;;23.90;19.30;;;;;;;;;;5056871;28;20371;-56
2023/02/12 07:00:15;;;;;;;23.50;18.70;;;;;;;;;;5056772;28;20077;-56
2023/02/12 07:02:41;;;;;;;28.15;19.88;;;;;;;;;;5056767;28;20409;-56
2023/02/12 07:05:07;;;;;;;25.40;18.58;;;;;;;;;;5056531;28;20045;-55
2023/02/12 07:07:33;;;;;;;22.65;18.13;;;;;;;;;;5057162;28;20431;-55
2023/02/12 07:09:59;;;;;;;25.58;17.58;;;;;;;;;;5057353;28;20021;-54
2023/02/12 07:12:25;;;;;;;20.50;17.15;;;;;;;;;;5056507;28;20439;-56
2023/02/12 07:14:51;;;;;;;27.52;19.42;;;;;;;;;;5056921;28;20021;-54
2023/02/12 07:17:17;;;;;;;24.00;18.38;;;;;;;;;;5056956;28;20075;-53
2023/02/12 07:19:43;;;;;;;21.50;19.08;;;;;;;;;;5056814;28;20029;-56
2023/02/12 07:22:09;;;;;;;22.77;17.90;;;;;;;;;;5056318;28;20100;-54
2023/02/12 07:24:35;;;;;;;26.10;19.25;;;;;;;;;;5056714;28;20366;-56
2023/02/12 07:27:01;;;;;;;24.60;18.88;;;;;;;;;;5056540;28;20077;-51
2023/02/12 07:29:27;;;;;;;27.05;19.33;;;;;;;;;;5056480;28;20107;-55
2023/02/12 07:31:53;;;;;;;29.05;20.85;;;;;;;;;;5056216;28;20029;-55
2023/02/12 07:34:18;;;;;;;25.77;19.23;;;;;;;;;;5056113;28;20369;-56
2023/02/12 07:36:44;;;;;;;24.33;20.27;;;;;;;;;;5056660;28;20374;-55
2023/02/12 07:39:11;;;;;;;25.50;19.10;;;;;;;;;;5056070;28;20398;-56
2023/02/12 07:41:37;;;;;;;24.88;18.52;;;;;;;;;;5056071;28;20051;-54
2023/02/12 07:44:09;;;;;;;25.20;20.48;;;;;;;;;;5055921;28;20033;-54
2023/02/12 07:46:36;;;;;;;31.35;21.45;;;;;;;;;;5055880;28;20478;-54
2023/02/12 07:49:04;;;;;;;22.58;19.35;;;;;;;;;;5056057;28;20032;-55
2023/02/12 07:51:31;;;;;;;27.85;21.75;;;;;;;;;;5055949;28;20024;-55
2023/02/12 07:53:57;;;;;;;26.35;20.50;;;;;;;;;;5056374;28;20056;-54
2023/02/12 07:56:28;;;;;;;33.65;23.13;;;;;;;;;;5055760;28;20458;-53
2023/02/12 07:58:54;;;;;;;30.50;21.30;;;;;;;;;;5056263;28;20067;-55
2023/02/12 08:01:25;;;;;;;26.88;21.88;;;;;;;;;;5055560;28;20021;-56
2023/02/12 08:03:52;;;;;;;28.38;21.80;;;;;;;;;;5055714;28;20053;-55
2023/02/12 08:06:25;;;;;;;25.83;21.02;;;;;;;;;;5055597;28;20032;-54
2023/02/12 08:08:51;;;;;;;25.50;19.45;;;;;;;;;;5055919;28;20032;-56
2023/02/12 08:11:17;;;;;;;25.30;20.75;;;;;;;;;;5055395;28;20056;-57
2023/02/12 08:13:43;;;;;;;31.65;21.35;;;;;;;;;;5055929;28;20040;-57
2023/02/12 08:16:10;;;;;;;31.00;20.73;;;;;;;;;;5055971;28;20451;-56
2023/02/12 08:18:37;;;;;;;30.48;23.50;;;;;;;;;;5055441;28;20111;-57
2023/02/12 08:21:07;;;;;;;28.33;19.60;;;;;;;;;;5055876;28;20021;-53
2023/02/12 08:23:33;;;;;;;32.85;24.38;;;;;;;;;;5055519;28;20024;-57
2023/02/12 08:26:06;;;;;;;30.70;22.92;;;;;;;;;;5055577;28;20101;-57
2023/02/12 08:28:32;;;;;;;30.30;23.35;;;;;;;;;;5055546;28;20067;-55
2023/02/12 08:31:05;;;;;;;30.45;22.10;;;;;;;;;;5055223;28;20029;-54
2023/02/12 08:33:31;;;;;;;30.70;21.95;;;;;;;;;;5055995;28;20028;-55
2023/02/12 08:36:17;;;;;;;30.92;21.38;;;;;;;;;;5055542;28;20021;-53
2023/02/12 08:38:44;;;;;;;33.53;23.77;;;;;;;;;;5055515;28;20083;-55
2023/02/12 08:41:11;;;;;;;31.77;23.15;;;;;;;;;;5055831;28;20442;-57
2023/02/12 08:43:37;;;;;;;30.48;22.35;;;;;;;;;;5054996;28;20053;-53
2023/02/12 08:46:03;;;;;;;29.85;23.52;;;;;;;;;;5055399;28;20017;-56
2023/02/12 08:48:29;;;;;;;33.50;23.38;;;;;;;;;;5054964;28;20029;-57
2023/02/12 08:50:55;;;;;;;32.50;24.13;;;;;;;;;;5054891;28;20025;-54
2023/02/12 08:53:21;;;;;;;31.00;24.48;;;;;;;;;;5055065;28;20021;-55
2023/02/12 08:55:48;;;;;;;30.40;24.85;;;;;;;;;;5055081;28;20509;-55
2023/02/12 08:58:14;;;;;;;34.90;23.80;;;;;;;;;;5054633;28;20192;-55
2023/02/12 09:00:40;;;;;;;36.90;23.60;;;;;;;;;;5054625;28;20564;-55
2023/02/12 09:03:06;;;;;;;30.77;22.08;;;;;;;;;;5054505;28;20060;-56
2023/02/12 09:05:32;;;;;;;28.42;23.30;;;;;;;;;;5054899;28;20040;-57
2023/02/12 09:07:58;;;;;;;27.45;22.45;;;;;;;;;;5055173;28;20071;-57
2023/02/12 09:10:24;;;;;;;32.10;23.52;;;;;;;;;;5053795;28;20025;-57
2023/02/12 09:12:50;;;;;;;26.15;18.55;;;;;;;;;;5054171;28;20061;-56
2023/02/12 09:15:16;;;;;;;25.98;17.85;;;;;;;;;;5054124;28;20139;-57
2023/02/12 09:17:42;;;;;;;22.85;15.98;;;;;;;;;;5054205;28;20064;-58
2023/02/12 09:20:09;;;;;;;17.50;12.35;;;;;;;;;;5054108;28;20033;-57
2023/02/12 09:22:37;;;;;;;17.30;13.15;;;;;;;;;;5054203;28;20029;-55
2023/02/12 09:25:06;;;;;;;21.00;14.27;;;;;;;;;;5053245;28;20040;-56
2023/02/12 09:27:31;;;;;;;19.88;14.40;;;;;;;;;;5054059;28;20027;-58
2023/02/12 09:30:00;;;;;;;23.15;15.40;;;;;;;;;;5054657;28;20037;-55
2023/02/12 09:32:26;;;;;;;14.02;10.85;;;;;;;;;;5054325;28;20123;-57
2023/02/12 09:34:52;;;;;;;19.05;14.30;;;;;;;;;;5054162;28;20056;-58
2023/02/12 09:37:18;;;;;;;13.57;10.25;;;;;;;;;;5053665;28;20032;-55
2023/02/12 09:39:44;;;;;;;16.05;12.30;;;;;;;;;;5054754;28;20056;-57
2023/02/12 09:42:10;;;;;;;16.48;10.73;;;;;;;;;;5054060;28;20065;-57
2023/02/12 09:44:45;;;;;;;13.80;8.90;;;;;;;;;;5054727;28;20449;-58
2023/02/12 09:47:31;;;;;;;10.32;8.50;;;;;;;;;;5053950;28;20451;-57
2023/02/12 09:50:05;;;;;;;13.45;7.97;;;;;;;;;;5053931;28;20057;-57
2023/02/12 09:52:33;;;;;;;13.82;9.90;;;;;;;;;;5053888;28;20040;-58
2023/02/12 09:54:59;;;;;;;15.13;10.18;;;;;;;;;;5053817;28;20498;-57
2023/02/12 09:57:25;;;;;;;12.05;9.20;;;;;;;;;;5053788;28;20032;-58
2023/02/12 09:59:55;;;;;;;11.65;7.65;;;;;;;;;;5054294;28;20432;-56
2023/02/12 10:02:22;;;;;;;10.27;7.15;;;;;;;;;;5053825;28;20024;-56
2023/02/12 10:04:49;;;;;;;10.63;7.50;;;;;;;;;;5054497;28;20048;-58
2023/02/12 10:07:21;;;;;;;9.93;7.13;;;;;;;;;;5053715;28;20100;-58
2023/02/12 10:10:06;;;;;;;8.75;7.50;;;;;;;;;;5053666;28;20055;-55
2023/02/12 10:12:53;;;;;;;9.23;6.60;;;;;;;;;;5053622;28;20112;-58
2023/02/12 10:15:31;;;;;;;7.55;5.85;;;;;;;;;;5053510;28;20075;-58
2023/02/12 10:18:06;;;;;;;8.05;5.78;;;;;;;;;;5054047;28;20385;-58
2023/02/12 10:20:39;;;;;;;7.47;4.95;;;;;;;;;;5054880;28;20032;-57
2023/02/12 10:23:20;;;;;;;10.45;6.47;;;;;;;;;;5057612;28;20035;-58
2023/02/12 10:25:50;;;;;;;8.65;5.05;;;;;;;;;;5058105;28;20032;-55
2023/02/12 10:28:18;;;;;;;6.40;4.88;;;;;;;;;;5057562;28;20347;-57
2023/02/12 10:31:01;;;;;;;10.60;6.10;;;;;;;;;;5057566;28;20025;-57
2023/02/12 10:33:31;;;;;;;7.90;5.03;;;;;;;;;;5057466;28;20029;-55
2023/02/12 10:36:16;;;;;;;5.90;4.53;;;;;;;;;;5057645;28;20195;-57
2023/02/12 10:38:45;;;;;;;7.40;4.72;;;;;;;;;;5057408;28;20071;-56
2023/02/12 10:41:13;;;;;;;5.65;4.25;;;;;;;;;;5057079;28;20036;-57
2023/02/12 10:43:38;;;;;;;5.32;3.70;;;;;;;;;;5057219;28;20033;-58
2023/02/12 10:46:05;;;;;;;6.15;4.65;;;;;;;;;;5057649;28;20107;-58
2023/02/12 10:48:39;;;;;;;5.72;4.63;;;;;;;;;;5057268;28;20029;-58
2023/02/12 10:51:16;;;;;;;6.40;4.18;;;;;;;;;;5057567;28;20025;-57
2023/02/12 10:53:43;;;;;;;4.78;3.80;;;;;;;;;;5057150;28;20032;-57
2023/02/12 10:56:12;;;;;;;6.03;3.85;;;;;;;;;;5057056;28;20124;-53
2023/02/12 10:58:42;;;;;;;5.45;3.83;;;;;;;;;;5057542;28;20017;-51
2023/02/12 11:01:16;;;;;;;6.75;3.97;;;;;;;;;;5057183;28;20116;-55
2023/02/12 11:03:42;;;;;;;8.05;4.03;;;;;;;;;;5057243;28;20053;-56
2023/02/12 11:06:12;;;;;;;6.78;4.25;;;;;;;;;;5057081;28;20074;-56
2023/02/12 11:08:39;;;;;;;;;;;;;;;;;;5057240;28;20021;-54
2023/02/12 11:11:10;;;;;;;6.18;4.30;;;;;;;;;;5056658;28;19905;-55
2023/02/12 11:13:36;;;;;;;4.57;3.53;;;;;;;;;;5056696;28;20057;-54
2023/02/12 11:16:03;;;;;;;5.97;3.70;;;;;;;;;;5056783;28;20033;-54
2023/02/12 11:18:31;;;;;;;5.43;3.35;;;;;;;;;;5056652;28;20506;-54
2023/02/12 11:20:57;;;;;;;6.85;4.20;;;;;;;;;;5056619;28;20417;-57
2023/02/12 11:23:23;;;;;;;4.80;3.40;;;;;;;;;;5056325;28;20025;-56
2023/02/12 11:25:57;;;;;;;6.53;4.38;;;;;;;;;;5056470;28;20029;-56
2023/02/12 11:28:23;;;;;;;6.60;4.68;;;;;;;;;;5056819;28;20523;-56
2023/02/12 11:30:51;;;;;;;7.40;3.88;;;;;;;;;;5056608;28;20409;-56
2023/02/12 11:33:23;;;;;;;7.50;3.50;;;;;;;;;;5055680;28;20029;-55
2023/02/12 11:35:54;;;;;;;5.82;3.80;;;;;;;;;;5056383;28;20459;-55
2023/02/12 11:38:23;;;;;;;8.85;5.40;;;;;;;;;;5056613;28;20025;-53
2023/02/12 11:40:49;;;;;;;8.63;6.07;;;;;;;;;;5055906;28;20463;-54
2023/02/12 11:43:17;;;;;;;8.43;4.38;;;;;;;;;;5056132;28;20024;-56
2023/02/12 11:45:46;;;;;;;7.97;4.70;;;;;;;;;;5056717;28;20025;-54
2023/02/12 11:48:27;;;;;;;7.50;4.75;;;;;;;;;;5055904;28;20043;-56
2023/02/12 11:50:54;;;;;;;7.85;4.60;;;;;;;;;;5055974;28;20029;-55
2023/02/12 11:53:29;;;;;;;5.20;4.40;;;;;;;;;;5055762;28;20029;-56
2023/02/12 11:55:57;;;;;;;9.00;4.78;;;;;;;;;;5056273;28;20025;-53
2023/02/12 11:58:24;;;;;;;7.57;4.80;;;;;;;;;;5055926;28;20367;-54
2023/02/12 12:00:58;;;;;;;8.18;5.00;;;;;;;;;;5056144;28;20029;-54
2023/02/12 12:03:43;;;;;;;7.82;4.25;;;;;;;;;;5055619;28;20053;-54
2023/02/12 12:06:21;;;;;;;8.27;4.57;;;;;;;;;;5055609;28;20073;-54
2023/02/12 12:09:05;;;;;;;5.82;4.47;;;;;;;;;;5055818;28;20021;-54
2023/02/12 12:11:49;;;;;;;6.32;4.43;;;;;;;;;;5056100;28;20131;-56
2023/02/12 12:19:51;;;;;;;9.13;5.20;;;;;;;;;;5055185;28;20414;-53
2023/02/12 12:20:10;;;;;;;7.65;5.13;;;;;;;;;;5055620;28;20051;-55
2023/02/12 12:22:51;;;;;;;5.75;4.20;;;;;;;;;;5055439;28;20028;-55
2023/02/12 12:25:26;;;;;;;6.82;4.95;;;;;;;;;;5055933;28;20036;-54
2023/02/12 12:28:01;;;;;;;8.88;4.75;;;;;;;;;;5055594;28;20079;-56
2023/02/12 12:30:33;;;;;;;6.32;3.80;;;;;;;;;;5056117;28;20060;-55
2023/02/12 12:33:01;;;;;;;5.55;3.88;;;;;;;;;;5055779;28;20033;-56
2023/02/12 12:35:32;;;;;;;10.00;5.60;;;;;;;;;;5054989;28;20029;-55
2023/02/12 12:38:01;;;;;;;11.38;5.70;;;;;;;;;;5055313;28;20025;-54
2023/02/12 12:40:50;;;;;;;7.43;5.07;;;;;;;;;;5055437;28;20057;-56
2023/02/12 12:43:35;;;;;;;7.70;5.20;;;;;;;;;;5054512;28;20501;-56
2023/02/12 12:46:11;;;;;;;6.13;4.53;;;;;;;;;;5055363;28;20375;-53
2023/02/12 12:48:45;;;;;;;7.75;5.53;;;;;;;;;;5054983;28;20059;-53
2023/02/12 12:51:28;;;;;;;6.10;3.60;;;;;;;;;;5055156;28;20417;-57
2023/02/12 12:53:57;;;;;;;6.63;4.28;;;;;;;;;;5054932;28;20120;-55
2023/02/12 12:56:47;;;;;;;7.28;4.10;;;;;;;;;;5055146;28;20078;-54
2023/02/12 12:59:31;;;;;;;6.50;3.47;;;;;;;;;;5055174;28;20029;-53
2023/02/12 13:02:03;;;;;;;7.43;4.18;;;;;;;;;;5054814;28;20070;-54
2023/02/12 13:04:36;;;;;;;6.22;5.13;;;;;;;;;;5054620;28;20052;-55
2023/02/12 13:07:21;;;;;;;6.57;4.35;;;;;;;;;;5054968;28;20028;-56
2023/02/12 13:09:52;;;;;;;9.38;5.45;;;;;;;;;;5054500;28;20083;-56
2023/02/12 13:12:36;;;;;;;5.32;3.95;;;;;;;;;;5055124;28;20017;-56
2023/02/12 13:15:02;;;;;;;5.10;3.92;;;;;;;;;;5054251;28;20475;-56
2023/02/12 13:17:44;;;;;;;8.07;4.97;;;;;;;;;;5054345;28;20122;-56
2023/02/12 13:20:31;;;;;;;5.97;4.18;;;;;;;;;;5054672;28;20379;-55
2023/02/12 13:22:59;;;;;;;5.13;3.50;;;;;;;;;;5054325;28;20036;-55
2023/02/12 13:25:32;;;;;;;9.27;4.22;;;;;;;;;;5054210;28;20351;-55
2023/02/12 13:27:59;;;;;;;6.15;4.22;;;;;;;;;;5054927;28;20536;-56
2023/02/12 13:30:36;;;;;;;7.60;4.15;;;;;;;;;;5054693;28;20025;-54
2023/02/12 13:33:14;;;;;;;6.60;4.38;;;;;;;;;;5054042;28;20360;-55
2023/02/12 13:35:42;;;;;;;5.47;3.78;;;;;;;;;;5054043;28;20448;-55
2023/02/12 13:38:09;;;;;;;7.13;4.10;;;;;;;;;;5054290;28;20032;-56
2023/02/12 13:40:35;;;;;;;4.70;3.47;;;;;;;;;;5053991;28;20086;-56
2023/02/12 13:43:10;;;;;;;8.75;3.63;;;;;;;;;;5054211;28;20029;-55
2023/02/12 13:45:41;;;;;;;4.35;3.00;;;;;;;;;;5054097;28;20083;-55
2023/02/12 13:48:06;;;;;;;;;;;;;;;;;;5054280;28;20021;-57
2023/02/12 13:50:39;;;;;;;2.97;2.55;;;;;;;;;;5053758;28;20274;-56
2023/02/12 13:53:12;;;;;;;3.70;2.42;;;;;;;;;;5053722;28;20116;-56
2023/02/12 13:55:41;;;;;;;5.00;2.97;;;;;;;;;;5053733;28;20036;-56
2023/02/12 13:58:25;;;;;;;6.57;3.63;;;;;;;;;;5053692;28;20448;-54
2023/02/12 14:00:51;;;;;;;4.20;3.00;;;;;;;;;;5053977;28;20352;-56
2023/02/12 14:03:23;;;;;;;3.63;2.40;;;;;;;;;;5053395;28;20131;-56
2023/02/12 14:06:06;;;;;;;4.10;2.58;;;;;;;;;;5054082;28;20072;-55
2023/02/12 14:08:37;;;;;;;5.47;2.80;;;;;;;;;;5053981;28;20417;-53
2023/02/12 14:11:05;;;;;;;2.67;1.92;;;;;;;;;;5053577;28;20029;-55
2023/02/12 14:13:34;;;;;;;6.07;3.08;;;;;;;;;;5053790;28;20096;-55
2023/02/12 14:16:17;;;;;;;3.88;2.78;;;;;;;;;;5053373;28;20108;-52
2023/02/12 14:18:43;;;;;;;2.60;1.80;;;;;;;;;;5053708;28;20028;-56
2023/02/12 14:21:12;;;;;;;3.60;2.80;;;;;;;;;;5052933;28;20075;-57
2023/02/12 14:23:42;;;;;;;5.05;2.90;;;;;;;;;;5053907;28;20017;-57
2023/02/12 14:26:10;;;;;;;3.63;2.05;;;;;;;;;;5053816;28;20023;-56
2023/02/12 14:28:47;;;;;;;6.20;2.85;;;;;;;;;;5054007;28;20035;-55
2023/02/12 14:31:22;;;;;;;3.47;2.03;;;;;;;;;;5053972;28;20086;-58
2023/02/12 14:33:52;;;;;;;3.90;2.65;;;;;;;;;;5053282;28;20025;-55
2023/02/12 14:36:40;;;;;;;5.88;3.13;;;;;;;;;;5053739;28;20025;-54
2023/02/12 14:39:21;;;;;;;5.07;2.70;;;;;;;;;;5053567;28;20067;-57
2023/02/12 14:41:48;;;;;;;5.15;2.95;;;;;;;;;;5053758;28;20371;-57
2023/02/12 14:44:14;;;;;;;4.05;2.65;;;;;;;;;;5053571;28;20037;-57
2023/02/12 14:46:48;;;;;;;4.30;2.92;;;;;;;;;;5053577;28;20405;-55